createdAt,value
2019-03-25T00:00:55.107Z,63.10
2019-03-25T00:03:25.481Z,53.17
2019-03-25T00:05:55.407Z,53.33
2019-03-25T00:08:25.175Z,54.50
2019-03-25T00:10:54.845Z,53.77
2019-03-25T00:13:24.547Z,53.97
2019-03-25T00:15:56.410Z,52.67
2019-03-25T00:18:25.549Z,52.80
2019-03-25T00:20:55.213Z,60.05
2019-03-25T00:23:26.123Z,54.60
2019-03-25T00:25:55.834Z,55.10
2019-03-25T00:28:25.662Z,55.10
2019-03-25T00:30:55.276Z,51.23
2019-03-25T00:33:25.024Z,54.70
2019-03-25T00:35:54.652Z,54.17
2019-03-25T00:38:24.521Z,55.50
2019-03-25T00:40:54.229Z,53.87
2019-03-25T00:43:23.830Z,52.00
2019-03-25T00:45:53.483Z,51.67
2019-03-25T00:48:23.182Z,55.67
2019-03-25T00:50:53.110Z,53.33
2019-03-25T00:53:22.836Z,54.17
2019-03-25T00:55:52.585Z,51.60
2019-03-25T00:58:22.354Z,50.30
2019-03-25T01:00:52.060Z,55.97
2019-03-25T01:03:21.848Z,53.67
2019-03-25T01:05:51.630Z,55.57
2019-03-25T01:08:21.370Z,52.73
2019-03-25T01:10:50.970Z,55.10
2019-03-25T01:13:20.634Z,59.42
2019-03-25T01:15:50.494Z,53.20
2019-03-25T01:18:20.078Z,53.30
2019-03-25T01:20:49.750Z,53.83
2019-03-25T01:23:19.362Z,53.93
2019-03-25T01:25:48.971Z,53.90
2019-03-25T01:28:18.718Z,55.90
2019-03-25T01:30:48.419Z,53.17
2019-03-25T01:33:19.110Z,51.90
2019-03-25T01:35:48.790Z,55.70
2019-03-25T01:38:18.460Z,52.27
2019-03-25T01:40:48.339Z,60.00
2019-03-25T01:43:18.061Z,52.10
2019-03-25T01:45:47.702Z,56.70
2019-03-25T01:48:17.563Z,50.93
2019-03-25T01:50:47.295Z,53.53
2019-03-25T01:53:17.259Z,52.13
2019-03-25T01:55:46.924Z,58.25
2019-03-25T01:58:16.607Z,56.53
2019-03-25T02:00:46.335Z,54.50
2019-03-25T02:03:15.954Z,52.87
2019-03-25T02:05:46.615Z,55.37
2019-03-25T02:08:16.207Z,53.27
2019-03-25T02:10:45.851Z,53.07
2019-03-25T02:13:15.621Z,54.00
2019-03-25T02:15:45.568Z,55.80
2019-03-25T02:18:15.229Z,54.37
2019-03-25T02:20:45.989Z,53.23
2019-03-25T02:23:15.676Z,55.43
2019-03-25T02:25:45.379Z,55.37
2019-03-25T02:28:15.143Z,57.30
2019-03-25T02:30:45.914Z,57.57
2019-03-25T02:33:15.738Z,55.70
2019-03-25T02:35:45.531Z,55.50
2019-03-25T02:38:15.136Z,57.37
2019-03-25T02:40:46.334Z,58.97
2019-03-25T02:43:16.044Z,57.23
2019-03-25T02:45:45.855Z,54.97
2019-03-25T02:48:15.561Z,57.90
2019-03-25T02:50:45.236Z,56.30
2019-03-25T02:53:14.988Z,57.90
2019-03-25T02:55:44.646Z,54.27
2019-03-25T02:58:14.293Z,58.00
2019-03-25T03:00:44.411Z,56.17
2019-03-25T03:03:14.188Z,56.20
2019-03-25T03:05:43.894Z,60.70
2019-03-25T03:08:13.625Z,56.40
2019-03-25T03:10:43.354Z,58.77
2019-03-25T03:13:13.097Z,58.30
2019-03-25T03:15:42.853Z,61.20
2019-03-25T03:18:12.574Z,57.27
2019-03-25T03:20:43.620Z,60.67
2019-03-25T03:23:13.316Z,59.70
2019-03-25T03:25:56.473Z,58.80
2019-03-25T03:28:14.247Z,59.83
2019-03-25T03:30:43.978Z,63.00
2019-03-25T03:33:13.721Z,59.97
2019-03-25T03:35:46.346Z,60.60
2019-03-25T03:38:14.730Z,60.23
2019-03-25T03:40:44.442Z,57.17
2019-03-25T03:43:14.161Z,60.03
2019-03-25T03:45:44.004Z,56.80
2019-03-25T03:48:13.975Z,65.03
2019-03-25T03:50:44.758Z,67.00
2019-03-25T03:53:14.502Z,61.47
2019-03-25T03:55:44.388Z,61.13
2019-03-25T03:58:14.365Z,61.53
2019-03-25T04:00:44.039Z,58.37
2019-03-25T04:03:13.679Z,67.50
2019-03-25T04:05:43.459Z,62.53
2019-03-25T04:08:13.124Z,57.40
2019-03-25T04:10:42.860Z,67.27
2019-03-25T04:13:12.891Z,69.15
2019-03-25T04:15:42.742Z,59.77
2019-03-25T04:18:12.334Z,59.60
2019-03-25T04:20:42.116Z,59.13
2019-03-25T04:23:11.807Z,66.82
2019-03-25T04:25:41.623Z,58.70
2019-03-25T04:28:11.279Z,57.00
2019-03-25T04:30:41.012Z,66.28
2019-03-25T04:33:10.740Z,66.33
2019-03-25T04:35:40.491Z,61.80
2019-03-25T04:38:10.227Z,57.00
2019-03-25T04:40:39.892Z,59.00
2019-03-25T04:43:09.493Z,55.60
2019-03-25T04:45:39.283Z,55.77
2019-03-25T04:48:08.885Z,56.67
2019-03-25T04:50:39.617Z,59.50
2019-03-25T04:53:10.457Z,57.67
2019-03-25T04:55:40.136Z,57.50
2019-03-25T04:58:09.803Z,58.83
2019-03-25T05:00:39.587Z,57.40
2019-03-25T05:03:09.385Z,58.20
2019-03-25T05:05:39.297Z,57.77
2019-03-25T05:08:09.148Z,60.00
2019-03-25T05:10:39.803Z,54.33
2019-03-25T05:13:09.477Z,58.60
2019-03-25T05:15:39.966Z,56.90
2019-03-25T05:18:09.577Z,58.37
2019-03-25T05:20:39.250Z,55.80
2019-03-25T05:23:08.941Z,59.30
2019-03-25T05:25:38.701Z,56.80
2019-03-25T05:28:08.526Z,51.83
2019-03-25T05:30:38.194Z,58.00
2019-03-25T05:33:07.878Z,61.57
2019-03-25T05:35:37.510Z,58.17
2019-03-25T05:38:07.266Z,59.37
2019-03-25T05:40:37.006Z,56.80
2019-03-25T05:43:06.820Z,57.33
2019-03-25T05:45:36.629Z,58.50
2019-03-25T05:48:06.441Z,53.47
2019-03-25T05:50:36.113Z,55.20
2019-03-25T05:53:05.831Z,59.40
2019-03-25T05:55:35.427Z,54.03
2019-03-25T05:58:05.292Z,54.73
2019-03-25T06:00:36.640Z,50.47
2019-03-25T06:03:06.274Z,50.10
2019-03-25T06:05:35.945Z,48.07
2019-03-25T06:08:05.651Z,43.77
2019-03-25T06:10:35.610Z,45.70
2019-03-25T06:13:05.283Z,42.13
2019-03-25T06:15:34.868Z,47.95
2019-03-25T06:18:04.887Z,41.10
2019-03-25T06:20:34.662Z,39.20
2019-03-25T06:23:04.423Z,44.93
2019-03-25T06:25:34.107Z,38.60
2019-03-25T06:28:03.856Z,36.67
2019-03-25T06:30:33.627Z,38.08
2019-03-25T06:33:12.009Z,33.77
2019-03-25T06:35:35.349Z,33.77
2019-03-25T06:38:05.019Z,32.13
2019-03-25T06:40:35.368Z,31.73
2019-03-25T06:43:05.017Z,32.73
2019-03-25T06:45:34.789Z,30.83
2019-03-25T06:48:04.600Z,29.00
2019-03-25T06:50:34.306Z,28.80
2019-03-25T06:53:03.987Z,30.90
2019-03-25T06:55:33.670Z,31.03
2019-03-25T06:58:03.374Z,26.47
2019-03-25T07:00:33.129Z,28.00
2019-03-25T07:03:02.790Z,27.13
2019-03-25T07:05:32.535Z,27.10
2019-03-25T07:08:02.482Z,28.00
2019-03-25T07:10:33.310Z,30.45
2019-03-25T07:13:04.190Z,26.33
2019-03-25T07:15:33.878Z,23.70
2019-03-25T07:18:05.034Z,22.67
2019-03-25T07:20:34.950Z,20.03
2019-03-25T07:23:04.710Z,21.23
2019-03-25T07:25:35.623Z,20.77
2019-03-25T07:28:05.340Z,21.17
2019-03-25T07:30:35.058Z,22.90
2019-03-25T07:33:04.735Z,21.30
2019-03-25T07:35:34.570Z,19.20
2019-03-25T07:38:04.332Z,18.07
2019-03-25T07:40:34.188Z,20.00
2019-03-25T07:43:03.983Z,19.43
2019-03-25T07:45:33.709Z,19.20
2019-03-25T07:48:04.234Z,18.63
2019-03-25T07:50:34.163Z,19.60
2019-03-25T07:53:05.111Z,19.10
2019-03-25T07:55:34.736Z,13.60
2019-03-25T07:58:04.453Z,17.50
2019-03-25T08:00:34.139Z,18.00
2019-03-25T08:03:05.012Z,17.60
2019-03-25T08:05:34.822Z,17.33
2019-03-25T08:08:07.168Z,18.23
2019-03-25T08:10:36.651Z,18.30
2019-03-25T08:13:06.512Z,16.80
2019-03-25T08:15:36.219Z,16.10
2019-03-25T08:18:06.182Z,16.75
2019-03-25T08:20:35.951Z,16.90
2019-03-25T08:23:09.292Z,18.50
2019-03-25T08:25:39.342Z,18.00
2019-03-25T08:28:09.015Z,15.30
2019-03-25T08:30:38.755Z,15.07
2019-03-25T08:33:08.487Z,13.47
2019-03-25T08:35:38.287Z,13.30
2019-03-25T08:38:07.943Z,13.73
2019-03-25T08:40:38.730Z,12.87
2019-03-25T08:43:08.396Z,11.90
2019-03-25T08:45:38.247Z,11.70
2019-03-25T08:48:08.996Z,11.50
2019-03-25T08:50:38.814Z,11.23
2019-03-25T08:53:08.484Z,10.37
2019-03-25T08:55:38.520Z,11.67
2019-03-25T08:58:12.283Z,11.40
2019-03-25T09:00:40.876Z,10.43
2019-03-25T09:03:10.708Z,12.33
2019-03-25T09:05:40.578Z,9.67
2019-03-25T09:08:10.270Z,11.30
2019-03-25T09:10:39.981Z,10.90
2019-03-25T09:13:09.588Z,9.93
2019-03-25T09:15:39.352Z,11.10
2019-03-25T09:18:09.043Z,11.80
2019-03-25T09:20:38.772Z,11.40
2019-03-25T09:23:08.424Z,11.50
2019-03-25T09:25:38.291Z,10.17
2019-03-25T09:28:09.208Z,11.00
2019-03-25T09:31:16.002Z,10.33
2019-03-25T09:33:46.282Z,9.55
2019-03-25T09:36:16.895Z,10.28
2019-03-25T09:38:46.551Z,9.90
2019-03-25T09:41:16.350Z,8.90
2019-03-25T09:43:46.266Z,8.45
2019-03-25T09:46:15.977Z,8.37
2019-03-25T09:48:45.645Z,8.50
2019-03-25T09:51:15.327Z,10.03
2019-03-25T09:53:44.989Z,9.03
2019-03-25T09:56:14.663Z,8.80
2019-03-25T09:58:44.258Z,8.33
2019-03-25T10:01:13.969Z,8.30
2019-03-25T10:03:43.548Z,8.60
2019-03-25T10:06:13.256Z,8.30
2019-03-25T10:08:43.005Z,7.30
2019-03-25T10:11:13.308Z,8.77
2019-03-25T10:13:42.939Z,7.87
2019-03-25T10:16:12.519Z,6.40
2019-03-25T10:18:42.265Z,7.77
2019-03-25T10:21:12.343Z,7.20
2019-03-25T10:23:42.123Z,8.23
2019-03-25T10:26:11.851Z,7.40
2019-03-25T10:28:48.538Z,7.50
2019-03-25T10:31:13.864Z,7.20
2019-03-25T10:33:43.537Z,5.60
2019-03-25T10:36:13.247Z,5.43
2019-03-25T10:38:42.919Z,6.20
2019-03-25T10:41:12.867Z,4.90
2019-03-25T10:43:42.543Z,4.10
2019-03-25T10:46:12.199Z,5.10
2019-03-25T10:48:41.871Z,4.47
2019-03-25T10:51:11.756Z,3.97
2019-03-25T10:53:41.424Z,3.77
2019-03-25T10:56:11.104Z,4.57
2019-03-25T10:58:40.791Z,4.30
2019-03-25T11:01:10.439Z,4.80
2019-03-25T11:03:40.189Z,4.67
2019-03-25T11:06:09.853Z,4.10
2019-03-25T11:08:39.459Z,5.07
2019-03-25T11:11:09.208Z,4.90
2019-03-25T11:13:38.883Z,5.30
2019-03-25T11:16:10.334Z,3.33
2019-03-25T11:18:39.898Z,3.03
2019-03-25T11:21:09.570Z,3.10
2019-03-25T11:23:39.202Z,3.60
2019-03-25T11:26:08.865Z,3.60
2019-03-25T11:28:38.533Z,3.10
2019-03-25T11:31:08.204Z,3.43
2019-03-25T11:33:37.852Z,2.87
2019-03-25T11:36:07.490Z,2.40
2019-03-25T11:38:37.205Z,2.53
2019-03-25T11:41:06.930Z,2.70
2019-03-25T11:43:36.613Z,3.57
2019-03-25T11:46:06.290Z,2.87
2019-03-25T11:48:35.972Z,3.10
2019-03-25T11:51:05.769Z,2.90
2019-03-25T11:53:35.378Z,2.80
2019-03-25T11:56:05.343Z,3.00
2019-03-25T11:58:35.007Z,2.87
2019-03-25T12:01:04.766Z,3.20
2019-03-25T12:03:34.459Z,3.47
2019-03-25T12:06:04.291Z,3.57
2019-03-25T12:08:33.922Z,3.23
2019-03-25T12:11:03.665Z,3.30
2019-03-25T12:13:33.381Z,2.80
2019-03-25T12:16:03.221Z,2.70
2019-03-25T12:18:32.954Z,2.60
2019-03-25T12:21:02.650Z,2.10
2019-03-25T12:23:32.294Z,4.03
2019-03-25T12:26:01.888Z,3.23
2019-03-25T12:28:31.552Z,3.10
2019-03-25T12:31:01.244Z,2.90
2019-03-25T12:33:30.834Z,2.80
2019-03-25T12:36:00.523Z,3.30
2019-03-25T12:38:30.163Z,3.27
2019-03-25T12:40:59.875Z,3.00
2019-03-25T12:43:29.576Z,4.00
2019-03-25T12:45:59.241Z,2.80
2019-03-25T12:48:28.858Z,3.10
2019-03-25T12:50:58.463Z,2.90
2019-03-25T12:53:29.160Z,2.53
2019-03-25T12:55:58.891Z,3.10
2019-03-25T12:58:28.475Z,3.33
2019-03-25T13:00:58.170Z,4.33
2019-03-25T13:03:27.818Z,3.80
2019-03-25T13:05:57.401Z,3.58
2019-03-25T13:08:32.970Z,3.93
2019-03-25T13:10:58.347Z,4.30
2019-03-25T13:13:27.919Z,5.27
2019-03-25T13:15:57.517Z,5.50
2019-03-25T13:18:27.176Z,4.67
2019-03-25T13:20:56.882Z,5.07
2019-03-25T13:23:26.643Z,5.00
2019-03-25T13:25:56.266Z,4.27
2019-03-25T13:28:26.050Z,3.57
2019-03-25T13:30:56.601Z,3.67
2019-03-25T13:33:26.334Z,4.10
2019-03-25T13:35:56.096Z,3.27
2019-03-25T13:38:25.737Z,2.87
2019-03-25T13:40:55.331Z,4.17
2019-03-25T13:43:25.271Z,3.87
2019-03-25T13:46:05.062Z,3.17
2019-03-25T13:48:27.427Z,3.57
2019-03-25T13:50:57.098Z,3.92
2019-03-25T13:53:26.758Z,3.70
2019-03-25T13:55:56.423Z,2.40
2019-03-25T13:58:26.009Z,2.60
2019-03-25T14:00:55.685Z,2.73
2019-03-25T14:03:25.387Z,2.50
2019-03-25T14:05:55.010Z,1.73
2019-03-25T14:08:24.713Z,1.90
2019-03-25T14:10:54.339Z,2.30
2019-03-25T14:13:23.971Z,2.70
2019-03-25T14:15:53.559Z,2.60
2019-03-25T14:18:23.125Z,2.50
2019-03-25T14:20:52.789Z,2.10
2019-03-25T14:23:22.445Z,3.00
2019-03-25T14:25:52.043Z,4.20
2019-03-25T14:28:21.703Z,9.97
2019-03-25T14:30:51.418Z,4.10
2019-03-25T14:33:20.990Z,4.10
2019-03-25T14:35:51.705Z,4.30
2019-03-25T14:38:21.507Z,4.27
2019-03-25T14:40:51.351Z,4.03
2019-03-25T14:43:21.119Z,4.30
2019-03-25T14:45:50.837Z,4.70
2019-03-25T14:48:20.487Z,4.05
2019-03-25T14:50:50.073Z,5.20
2019-03-25T14:53:19.727Z,4.67
2019-03-25T14:55:49.329Z,4.73
2019-03-25T14:58:19.001Z,4.70
2019-03-25T15:00:48.571Z,4.62
2019-03-25T15:03:18.236Z,5.30
2019-03-25T15:05:47.913Z,5.10
2019-03-25T15:08:17.691Z,4.70
2019-03-25T15:10:53.455Z,3.70
2019-03-25T15:13:18.645Z,3.97
2019-03-25T15:15:48.315Z,3.57
2019-03-25T15:18:17.973Z,2.90
2019-03-25T15:20:47.625Z,3.33
2019-03-25T15:23:17.308Z,2.70
2019-03-25T15:25:46.975Z,3.10
2019-03-25T15:28:16.919Z,3.13
2019-03-25T15:30:46.506Z,1.80
2019-03-25T15:33:16.094Z,2.00
2019-03-25T15:35:45.672Z,1.97
2019-03-25T15:38:16.334Z,2.10
2019-03-25T15:40:45.914Z,2.90
2019-03-25T15:43:15.614Z,2.37
2019-03-25T15:45:45.337Z,1.73
2019-03-25T15:48:15.058Z,1.80
2019-03-25T15:50:44.723Z,1.90
2019-03-25T15:53:14.310Z,2.70
2019-03-25T15:55:43.972Z,2.30
2019-03-25T15:58:13.638Z,2.50
2019-03-25T16:00:47.927Z,2.10
2019-03-25T16:03:14.856Z,2.10
2019-03-25T16:05:44.591Z,2.60
2019-03-25T16:08:15.163Z,2.80
2019-03-25T16:10:44.790Z,3.60
2019-03-25T16:13:14.585Z,3.40
2019-03-25T16:15:44.342Z,3.17
2019-03-25T16:18:33.696Z,4.20
2019-03-25T16:21:03.469Z,4.00
2019-03-25T16:23:33.131Z,4.63
2019-03-25T16:26:02.830Z,4.87
2019-03-25T16:28:32.502Z,4.40
2019-03-25T16:31:02.192Z,5.27
2019-03-25T16:33:31.878Z,4.63
2019-03-25T16:36:01.531Z,3.63
2019-03-25T16:38:32.382Z,3.87
2019-03-25T16:41:02.034Z,3.90
2019-03-25T16:43:31.658Z,3.63
2019-03-25T16:46:01.289Z,2.90
2019-03-25T16:48:31.054Z,3.17
2019-03-25T16:51:00.718Z,2.40
2019-03-25T16:53:32.352Z,2.40
2019-03-25T16:56:01.730Z,2.33
2019-03-25T16:58:31.432Z,4.53
2019-03-25T17:01:09.543Z,2.80
2019-03-25T17:03:32.527Z,2.30
2019-03-25T17:06:02.255Z,2.70
2019-03-25T17:08:31.915Z,2.53
2019-03-25T17:11:01.590Z,2.60
2019-03-25T17:13:31.334Z,2.70
2019-03-25T17:16:00.902Z,2.80
2019-03-25T17:18:30.559Z,4.37
2019-03-25T17:21:00.178Z,2.40
2019-03-25T17:23:29.771Z,2.60
2019-03-25T17:25:59.459Z,2.90
2019-03-25T17:28:29.080Z,2.73
2019-03-25T17:30:58.727Z,3.00
2019-03-25T17:33:28.398Z,3.87
2019-03-25T17:35:58.243Z,2.83
2019-03-25T17:38:27.827Z,2.67
2019-03-25T17:40:57.481Z,2.90
2019-03-25T17:43:27.161Z,2.80
2019-03-25T17:45:56.826Z,2.30
2019-03-25T17:48:26.494Z,2.40
2019-03-25T17:50:57.279Z,3.50
2019-03-25T17:53:28.035Z,2.97
2019-03-25T17:55:57.679Z,3.27
2019-03-25T17:58:27.370Z,2.80
2019-03-25T18:01:01.586Z,3.20
2019-03-25T18:03:31.426Z,2.67
2019-03-25T18:06:01.108Z,2.77
2019-03-25T18:08:30.790Z,2.83
2019-03-25T18:11:00.363Z,2.40
2019-03-25T18:13:31.164Z,3.00
2019-03-25T18:16:00.833Z,2.70
2019-03-25T18:18:30.472Z,2.77
2019-03-25T18:21:00.210Z,3.10
2019-03-25T18:23:29.813Z,3.47
2019-03-25T18:25:59.686Z,3.27
2019-03-25T18:28:29.352Z,3.03
2019-03-25T18:30:58.932Z,3.97
2019-03-25T18:33:28.586Z,3.77
2019-03-25T18:35:58.147Z,3.77
2019-03-25T18:38:27.743Z,3.27
2019-03-25T18:40:57.318Z,3.43
2019-03-25T18:43:27.086Z,3.80
2019-03-25T18:45:56.819Z,3.90
2019-03-25T18:48:26.486Z,2.93
2019-03-25T18:50:57.158Z,4.20
2019-03-25T18:53:26.874Z,3.87
2019-03-25T18:55:56.570Z,3.90
2019-03-25T18:58:26.244Z,3.57
2019-03-25T19:00:55.969Z,3.60
2019-03-25T19:03:25.607Z,3.50
2019-03-25T19:05:55.340Z,3.80
2019-03-25T19:08:26.294Z,3.13
2019-03-25T19:10:56.109Z,3.70
2019-03-25T19:13:26.792Z,3.20
2019-03-25T19:15:56.599Z,3.40
2019-03-25T19:18:26.231Z,3.30
2019-03-25T19:20:55.989Z,3.77
2019-03-25T19:23:25.725Z,3.70
2019-03-25T19:25:55.395Z,4.23
2019-03-25T19:28:24.982Z,3.60
2019-03-25T19:30:54.625Z,3.80
2019-03-25T19:33:24.473Z,3.30
2019-03-25T19:35:54.127Z,3.80
2019-03-25T19:38:24.233Z,4.30
2019-03-25T19:40:53.977Z,3.00
2019-03-25T19:43:23.584Z,3.30
2019-03-25T19:45:54.305Z,3.33
2019-03-25T19:48:24.212Z,3.90
2019-03-25T19:50:54.050Z,3.10
2019-03-25T19:53:23.687Z,3.83
2019-03-25T19:55:53.339Z,3.50
2019-03-25T19:58:22.984Z,3.80
2019-03-25T20:00:52.657Z,3.20
2019-03-25T20:03:22.380Z,3.80
2019-03-25T20:05:52.120Z,3.27
2019-03-25T20:08:21.806Z,3.00
2019-03-25T20:10:51.370Z,2.43
2019-03-25T20:13:20.982Z,2.93
2019-03-25T20:15:50.608Z,2.00
2019-03-25T20:18:20.236Z,2.43
2019-03-25T20:20:49.828Z,1.80
2019-03-25T20:23:19.677Z,1.53
2019-03-25T20:25:49.370Z,2.00
2019-03-25T20:28:19.186Z,2.30
2019-03-25T20:30:48.810Z,1.57
2019-03-25T20:33:18.597Z,2.37
2019-03-25T20:35:48.271Z,2.03
2019-03-25T20:38:17.878Z,79.40
2019-03-25T20:40:47.828Z,3.37
2019-03-25T20:43:17.474Z,2.70
2019-03-25T20:45:47.231Z,3.00
2019-03-25T20:48:16.794Z,3.20
2019-03-25T20:50:46.471Z,2.70
2019-03-25T20:53:16.118Z,3.33
2019-03-25T20:55:45.782Z,3.60
2019-03-25T20:58:15.521Z,3.10
2019-03-25T21:00:46.113Z,3.80
2019-03-25T21:03:16.370Z,4.53
2019-03-25T21:05:45.960Z,3.87
2019-03-25T21:08:15.676Z,4.57
2019-03-25T21:10:45.375Z,4.47
2019-03-25T21:13:15.022Z,4.30
2019-03-25T21:15:46.249Z,4.90
2019-03-25T21:18:16.130Z,5.70
2019-03-25T21:20:45.841Z,5.30
2019-03-25T21:23:15.589Z,5.87
2019-03-25T21:25:45.336Z,5.60
2019-03-25T21:28:15.059Z,6.20
2019-03-25T21:30:48.283Z,6.27
2019-03-25T21:33:16.320Z,5.67
2019-03-25T21:35:46.570Z,6.20
2019-03-25T21:38:16.435Z,7.07
2019-03-25T21:40:46.206Z,5.73
2019-03-25T21:43:16.037Z,6.33
2019-03-25T21:45:45.869Z,6.40
2019-03-25T21:48:15.523Z,7.03
2019-03-25T21:50:45.262Z,6.03
2019-03-25T21:53:15.685Z,5.17
2019-03-25T21:55:47.130Z,5.33
2019-03-25T21:58:16.925Z,6.40
2019-03-25T22:00:46.838Z,6.00
2019-03-25T22:03:17.027Z,77.20
2019-03-25T22:05:46.810Z,7.40
2019-03-25T22:08:16.450Z,5.60
2019-03-25T22:10:46.155Z,6.20
2019-03-25T22:13:15.785Z,6.17
2019-03-25T22:15:45.359Z,6.80
2019-03-25T22:18:14.906Z,6.40
2019-03-25T22:20:44.656Z,6.03
2019-03-25T22:23:14.228Z,5.80
2019-03-25T22:25:43.836Z,5.93
2019-03-25T22:28:13.462Z,5.30
2019-03-25T22:30:43.161Z,5.97
2019-03-25T22:33:25.155Z,6.20
2019-03-25T22:35:44.115Z,5.80
2019-03-25T22:38:13.667Z,6.37
2019-03-25T22:40:43.366Z,6.37
2019-03-25T22:43:13.007Z,5.70
2019-03-25T22:45:42.699Z,5.93
2019-03-25T22:48:12.335Z,5.53
2019-03-25T22:50:42.115Z,5.73
2019-03-25T22:53:11.767Z,41.75
2019-03-25T22:55:42.781Z,5.20
2019-03-25T22:58:15.241Z,4.83
2019-03-25T23:00:45.234Z,4.77
2019-03-25T23:03:15.325Z,5.77
2019-03-25T23:05:45.134Z,5.40
2019-03-25T23:08:14.793Z,5.87
2019-03-25T23:10:44.443Z,6.00
2019-03-25T23:13:14.037Z,4.80
2019-03-25T23:15:44.737Z,4.90
2019-03-25T23:18:14.378Z,5.90
2019-03-25T23:20:44.054Z,5.70
2019-03-25T23:23:13.731Z,4.87
2019-03-25T23:25:43.375Z,4.47
2019-03-25T23:28:13.008Z,5.23
2019-03-25T23:30:42.938Z,4.50
2019-03-25T23:33:12.742Z,5.30
2019-03-25T23:35:42.408Z,4.90
2019-03-25T23:38:12.566Z,5.73
2019-03-25T23:40:42.167Z,6.40
2019-03-25T23:43:11.809Z,6.17
2019-03-25T23:45:42.292Z,5.63
2019-03-25T23:48:11.870Z,5.40
2019-03-25T23:50:41.494Z,5.40
2019-03-25T23:53:11.084Z,5.73
2019-03-25T23:55:40.819Z,5.70
2019-03-25T23:58:10.561Z,7.37
